Time;durP1;ratioP1;P1;durP2;ratioP2;P2;SDS_P1;SDS_P2;PMS_P1;PMS_P2;Temp;Humidity;BMP_temperature;BMP_pressure;BME280_temperature;BME280_humidity;BME280_pressure;Samples;Min_cycle;Max_cycle;Signal;HPM_P1;HPM_P2
2022/05/26 00:02:15;;;;;;;;;;;16.40;99.90;;;;;;4994721;28;19936;-77
2022/05/26 00:04:46;;;;;;;;;;;16.40;99.90;;;;;;4995748;28;19930;-77
2022/05/26 00:07:13;;;;;;;;;;;16.40;99.90;;;;;;4990761;28;20385;-76
2022/05/26 00:09:40;;;;;;;;;;;16.40;99.90;;;;;;5012527;28;20568;-77
2022/05/26 00:12:08;;;;;;;;;;;16.30;99.90;;;;;;4993725;28;19929;-78
2022/05/26 00:14:35;;;;;;;;;;;16.40;99.90;;;;;;5010782;28;20083;-75
2022/05/26 00:17:02;;;;;;;;;;;16.40;99.90;;;;;;4995017;28;19969;-78
2022/05/26 00:19:29;;;;;;;;;;;16.30;99.90;;;;;;4994588;28;19936;-77
2022/05/26 00:21:57;;;;;;;;;;;16.30;99.90;;;;;;4994813;28;19925;-78
2022/05/26 00:24:24;;;;;;;;;;;16.30;99.90;;;;;;4999652;28;20051;-77
2022/05/26 00:26:52;;;;;;;;;;;16.30;99.90;;;;;;4993587;28;20351;-77
2022/05/26 00:29:19;;;;;;;;;;;16.30;99.90;;;;;;5010586;28;20551;-77
2022/05/26 00:31:46;;;;;;;;;;;16.30;99.90;;;;;;5008481;28;19937;-76
2022/05/26 00:34:13;;;;;;;;;;;16.30;99.90;;;;;;5010979;28;19926;-76
2022/05/26 00:36:41;;;;;;;;;;;17.40;99.90;;;;;;5010688;28;19953;-74
2022/05/26 00:39:11;;;;;;;;;;;16.30;99.90;;;;;;5011292;28;19965;-76
2022/05/26 00:41:39;;;;;;;;;;;16.30;99.90;;;;;;5009702;28;19933;-75
2022/05/26 00:44:06;;;;;;;;;;;16.30;99.90;;;;;;5012270;28;19930;-76
2022/05/26 00:46:36;;;;;;;;;;;16.30;99.90;;;;;;4992994;28;19925;-77
2022/05/26 00:49:03;;;;;;;;;;;16.30;99.90;;;;;;5011163;28;19925;-78
2022/05/26 00:51:33;;;;;;;;;;;16.30;99.90;;;;;;4991754;28;19929;-78
2022/05/26 00:54:03;;;;;;;;;;;16.30;99.90;;;;;;5009336;28;19930;-78
2022/05/26 00:56:33;;;;;;;;;;;16.30;99.90;;;;;;5009586;28;19936;-78
2022/05/26 00:59:03;;;;;;;;;;;16.30;99.90;;;;;;4993799;28;19988;-77
2022/05/26 01:01:30;;;;;;;;;;;16.30;99.90;;;;;;4991577;28;19930;-78
2022/05/26 01:03:59;;;;;;;;;;;16.30;99.90;;;;;;4989418;28;19925;-77
2022/05/26 01:06:27;;;;;;;;;;;16.30;99.90;;;;;;4998580;28;20555;-77
2022/05/26 01:08:55;;;;;;;;;;;16.10;99.90;;;;;;4991733;28;19965;-77
2022/05/26 01:11:23;;;;;;;;;;;16.30;99.90;;;;;;4990691;28;20364;-77
2022/05/26 01:13:53;;;;;;;;;;;16.20;99.90;;;;;;4993648;28;19941;-78
2022/05/26 01:16:25;;;;;;;;;;;16.30;99.90;;;;;;4993811;28;19937;-78
2022/05/26 01:18:56;;;;;;;;;;;16.20;99.90;;;;;;5009241;28;19929;-78
2022/05/26 01:21:25;;;;;;;;;;;16.30;99.90;;;;;;5014516;28;19952;-78
2022/05/26 01:24:08;;;;;;;;;;;16.30;99.90;;;;;;5008875;28;19933;-77
2022/05/26 01:26:53;;;;;;;;;;;16.30;99.90;;;;;;5002447;28;19939;-77
2022/05/26 01:29:34;;;;;;;;;;;16.30;99.90;;;;;;5010745;28;19930;-77
2022/05/26 01:32:07;;;;;;;;;;;16.30;99.90;;;;;;5006979;28;19930;-77
2022/05/26 01:34:40;;;;;;;;;;;16.30;99.90;;;;;;5008368;28;20045;-77
2022/05/26 01:37:12;;;;;;;;;;;16.30;99.90;;;;;;4992470;28;19943;-77
2022/05/26 01:39:41;;;;;;;;;;;16.30;99.90;;;;;;4991360;28;20360;-77
2022/05/26 01:42:12;;;;;;;;;;;16.30;99.90;;;;;;5010724;28;20003;-78
2022/05/26 01:44:44;;;;;;;;;;;16.30;99.90;;;;;;5008209;28;19929;-77
2022/05/26 01:47:19;;;;;;;;;;;16.30;99.90;;;;;;4986440;28;19933;-77
2022/05/26 01:49:49;;;;;;;;;;;16.20;99.90;;;;;;5008843;28;19925;-77
2022/05/26 01:52:27;;;;;;;;;;;16.20;99.90;;;;;;5007968;28;19926;-77
2022/05/26 01:54:59;;;;;;;;;;;16.20;99.90;;;;;;4991651;28;20377;-77
2022/05/26 01:57:29;;;;;;;;;;;16.20;99.90;;;;;;4996902;28;19925;-79
2022/05/26 02:00:00;;;;;;;;;;;16.20;99.90;;;;;;4994180;28;19925;-77
2022/05/26 02:02:30;;;;;;;;;;;16.20;99.90;;;;;;4995220;28;19984;-77
2022/05/26 02:04:59;;;;;;;;;;;16.10;99.90;;;;;;5012914;28;19926;-77
2022/05/26 02:07:28;;;;;;;;;;;16.10;99.90;;;;;;5011553;28;19929;-76
2022/05/26 02:09:56;;;;;;;;;;;16.10;99.90;;;;;;4994255;28;19936;-76
2022/05/26 02:12:26;;;;;;;;;;;16.10;99.90;;;;;;4994575;28;20488;-77
2022/05/26 02:14:55;;;;;;;;;;;16.10;99.90;;;;;;5012994;28;19945;-78
2022/05/26 02:17:26;;;;;;;;;;;16.00;99.90;;;;;;4995302;28;19983;-77
2022/05/26 02:19:56;;;;;;;;;;;16.10;99.90;;;;;;4994561;28;19929;-78
2022/05/26 02:22:26;;;;;;;;;;;16.10;99.90;;;;;;5011226;28;20384;-78
2022/05/26 02:24:56;;;;;;;;;;;16.00;99.90;;;;;;4995472;28;19933;-78
2022/05/26 02:27:26;;;;;;;;;;;16.00;99.90;;;;;;4995651;28;20432;-78
2022/05/26 02:29:52;;;;;;;;;;;16.00;99.90;;;;;;5011880;28;19934;-78
2022/05/26 02:32:20;;;;;;;;;;;16.00;99.90;;;;;;5010631;28;19937;-78
2022/05/26 02:34:49;;;;;;;;;;;16.00;99.90;;;;;;4993890;28;20640;-79
2022/05/26 02:37:17;;;;;;;;;;;16.00;99.90;;;;;;5022761;28;19929;-79
2022/05/26 02:39:44;;;;;;;;;;;16.00;99.90;;;;;;4995613;28;19929;-79
2022/05/26 02:42:12;;;;;;;;;;;16.00;99.90;;;;;;4994896;28;19925;-78
2022/05/26 02:44:39;;;;;;;;;;;16.00;99.90;;;;;;5010898;28;19961;-77
2022/05/26 02:47:14;;;;;;;;;;;16.00;99.90;;;;;;5012709;28;19925;-79
2022/05/26 02:49:50;;;;;;;;;;;16.00;99.90;;;;;;5014488;28;19940;-78
2022/05/26 02:52:21;;;;;;;;;;;16.00;99.90;;;;;;5008189;28;19929;-80
2022/05/26 02:54:52;;;;;;;;;;;16.00;99.90;;;;;;5014314;28;20388;-79
2022/05/26 02:57:22;;;;;;;;;;;16.00;99.90;;;;;;5010236;28;20405;-79
2022/05/26 02:59:51;;;;;;;;;;;16.00;99.90;;;;;;5012077;28;19925;-78
2022/05/26 03:02:20;;;;;;;;;;;15.90;99.90;;;;;;5020180;28;19972;-79
2022/05/26 03:04:49;;;;;;;;;;;15.90;99.90;;;;;;5014130;28;20003;-79
2022/05/26 03:07:17;;;;;;;;;;;15.90;99.90;;;;;;5013268;28;19926;-78
2022/05/26 03:09:45;;;;;;;;;;;15.90;99.90;;;;;;5012680;28;19929;-78
2022/05/26 03:12:22;;;;;;;;;;;15.90;99.90;;;;;;4995772;28;20398;-79
2022/05/26 03:14:49;;;;;;;;;;;15.90;99.90;;;;;;5013207;28;19929;-78
2022/05/26 03:17:16;;;;;;;;;;;15.90;99.90;;;;;;5011997;28;20401;-79
2022/05/26 03:19:43;;;;;;;;;;;15.90;99.90;;;;;;5013801;28;20349;-79
2022/05/26 03:22:10;;;;;;;;;;;15.90;99.90;;;;;;4995459;28;20031;-79
2022/05/26 03:24:37;;;;;;;;;;;15.90;99.90;;;;;;5011614;28;19929;-80
2022/05/26 03:27:06;;;;;;;;;;;15.90;99.90;;;;;;5013620;28;19933;-78
2022/05/26 03:29:34;;;;;;;;;;;15.90;99.90;;;;;;4997721;28;20384;-79
2022/05/26 03:32:05;;;;;;;;;;;15.90;99.90;;;;;;5013157;28;20554;-80
2022/05/26 03:42:48;;;;;;;;;;;15.80;99.90;;;;;;5012682;28;19922;-77
2022/05/26 03:45:17;;;;;;;;;;;15.70;99.90;;;;;;4997370;28;19926;-80
2022/05/26 03:47:44;;;;;;;;;;;15.70;99.90;;;;;;5014324;28;20049;-79
2022/05/26 03:50:11;;;;;;;;;;;15.70;99.90;;;;;;5013117;28;20239;-79
2022/05/26 03:52:38;;;;;;;;;;;15.70;99.90;;;;;;5015127;28;19972;-79
2022/05/26 03:55:05;;;;;;;;;;;15.60;99.90;;;;;;5011707;28;19992;-77
2022/05/26 03:57:32;;;;;;;;;;;15.60;99.90;;;;;;5012222;28;20306;-77
2022/05/26 04:00:00;;;;;;;;;;;15.50;99.90;;;;;;4995259;28;19926;-76
2022/05/26 04:02:27;;;;;;;;;;;15.50;99.90;;;;;;4994543;28;19975;-76
2022/05/26 04:04:54;;;;;;;;;;;15.40;99.90;;;;;;5011577;28;19929;-80
2022/05/26 04:07:21;;;;;;;;;;;15.40;99.90;;;;;;4994201;28;19925;-78
2022/05/26 04:09:48;;;;;;;;;;;15.30;99.90;;;;;;4994441;28;19925;-79
2022/05/26 04:12:17;;;;;;;;;;;15.20;99.90;;;;;;5007934;28;20658;-80
2022/05/26 04:14:44;;;;;;;;;;;15.10;99.90;;;;;;5000667;28;19939;-80
2022/05/26 04:17:12;;;;;;;;;;;15.10;99.90;;;;;;4995273;28;19971;-79
2022/05/26 04:19:41;;;;;;;;;;;15.00;99.90;;;;;;4991423;28;20397;-77
2022/05/26 04:22:17;;;;;;;;;;;15.00;99.90;;;;;;5007084;28;19925;-78
2022/05/26 04:24:47;;;;;;;;;;;15.00;99.90;;;;;;5009645;28;19940;-77
2022/05/26 04:27:14;;;;;;;;;;;15.00;99.90;;;;;;4992071;28;20031;-77
2022/05/26 04:29:41;;;;;;;;;;;15.00;99.90;;;;;;4991422;28;19929;-80
2022/05/26 04:32:08;;;;;;;;;;;15.10;99.90;;;;;;4991547;28;20415;-78
2022/05/26 04:34:36;;;;;;;;;;;15.10;99.90;;;;;;4988642;28;19929;-80
2022/05/26 04:37:06;;;;;;;;;;;15.10;99.90;;;;;;5003167;28;20443;-79
2022/05/26 04:39:34;;;;;;;;;;;15.20;99.90;;;;;;4992562;28;19932;-78
2022/05/26 04:42:01;;;;;;;;;;;15.20;99.90;;;;;;5007679;28;19932;-78
2022/05/26 04:44:30;;;;;;;;;;;15.30;99.90;;;;;;4992565;28;19930;-79
2022/05/26 04:46:57;;;;;;;;;;;15.30;99.90;;;;;;4991971;28;19995;-77
2022/05/26 04:49:26;;;;;;;;;;;15.40;99.90;;;;;;4989681;28;20374;-78
2022/05/26 04:51:55;;;;;;;;;;;15.40;99.90;;;;;;5007299;28;19933;-79
2022/05/26 04:54:22;;;;;;;;;;;15.40;99.90;;;;;;4996198;28;19936;-79
2022/05/26 04:56:49;;;;;;;;;;;15.40;99.90;;;;;;5010824;28;19933;-80
2022/05/26 04:59:16;;;;;;;;;;;15.40;99.90;;;;;;4992593;28;20309;-77
2022/05/26 05:01:43;;;;;;;;;;;15.40;99.90;;;;;;5009984;28;19937;-78
2022/05/26 05:04:10;;;;;;;;;;;15.50;99.90;;;;;;5016697;28;19988;-79
2022/05/26 05:06:36;;;;;;;;;;;15.50;99.90;;;;;;5019269;28;19933;-79
2022/05/26 05:09:05;;;;;;;;;;;15.70;99.90;;;;;;5003932;28;19929;-80
2022/05/26 05:11:31;;;;;;;;;;;15.70;99.90;;;;;;5018319;28;19936;-80
2022/05/26 05:14:00;;;;;;;;;;;15.80;99.90;;;;;;5018211;28;19972;-79
2022/05/26 05:16:30;;;;;;;;;;;15.90;99.90;;;;;;5016990;28;19936;-79
2022/05/26 05:18:57;;;;;;;;;;;16.00;99.90;;;;;;5002345;28;19933;-79
2022/05/26 05:21:26;;;;;;;;;;;16.10;99.90;;;;;;5000712;28;19930;-79
2022/05/26 05:23:56;;;;;;;;;;;16.20;99.90;;;;;;5001536;28;19930;-79
2022/05/26 05:26:29;;;;;;;;;;;16.30;99.90;;;;;;5023054;28;19929;-80
2022/05/26 05:28:57;;;;;;;;;;;16.30;99.90;;;;;;5012586;28;19948;-80
2022/05/26 05:31:26;;;;;;;;;;;16.40;99.90;;;;;;5021842;28;19926;-80
2022/05/26 05:33:56;;;;;;;;;;;16.50;99.90;;;;;;5021097;28;20314;-82
2022/05/26 05:36:24;;;;;;;;;;;16.70;99.90;;;;;;5005528;28;19934;-82
2022/05/26 05:38:52;;;;;;;;;;;16.70;99.90;;;;;;5025531;28;20449;-80
2022/05/26 05:41:20;;;;;;;;;;;16.70;99.90;;;;;;5022934;28;19925;-81
2022/05/26 05:43:49;;;;;;;;;;;16.70;99.90;;;;;;5009370;28;20046;-80
2022/05/26 05:46:19;;;;;;;;;;;16.70;99.90;;;;;;5006099;28;19987;-79
2022/05/26 05:48:48;;;;;;;;;;;16.90;99.90;;;;;;5006104;28;19936;-78
2022/05/26 05:51:16;;;;;;;;;;;16.90;99.90;;;;;;5005576;28;20668;-79
2022/05/26 05:53:44;;;;;;;;;;;17.10;99.90;;;;;;5004950;28;19972;-80
2022/05/26 05:56:11;;;;;;;;;;;17.20;99.90;;;;;;5023038;28;19929;-79
2022/05/26 05:58:38;;;;;;;;;;;17.30;99.90;;;;;;5009901;28;19932;-81
2022/05/26 06:01:07;;;;;;;;;;;17.50;99.90;;;;;;5008711;28;19933;-80
2022/05/26 06:03:35;;;;;;;;;;;17.70;99.90;;;;;;5008361;28;19997;-81
2022/05/26 06:06:02;;;;;;;;;;;18.00;99.90;;;;;;5007660;28;19968;-81
2022/05/26 06:08:29;;;;;;;;;;;18.20;99.90;;;;;;5007732;28;19932;-80
2022/05/26 06:10:56;;;;;;;;;;;18.20;99.90;;;;;;5005550;28;19944;-82
2022/05/26 06:13:23;;;;;;;;;;;18.30;99.90;;;;;;5004550;28;19960;-82
2022/05/26 06:15:50;;;;;;;;;;;18.20;99.90;;;;;;5020605;28;19926;-83
2022/05/26 06:18:19;;;;;;;;;;;18.10;99.90;;;;;;5001192;28;20001;-80
2022/05/26 06:20:46;;;;;;;;;;;18.10;99.90;;;;;;5000153;28;19930;-78
2022/05/26 06:23:13;;;;;;;;;;;18.00;99.90;;;;;;4999446;28;19941;-82
2022/05/26 06:25:40;;;;;;;;;;;18.00;99.90;;;;;;5002699;28;19926;-81
2022/05/26 06:30:48;;;;;;;;;;;18.10;99.90;;;;;;5432804;22;20254;-80
2022/05/26 06:38:51;;;;;;;;;;;18.40;99.90;;;;;;5032443;28;19936;-80
2022/05/26 06:47:02;;;;;;;;;;;18.80;99.90;;;;;;5073747;28;19928;-83
2022/05/26 06:49:34;;;;;;;;;;;19.10;99.90;;;;;;5078572;28;19964;-79
2022/05/26 06:52:07;;;;;;;;;;;19.20;99.90;;;;;;5078683;28;19924;-80
2022/05/26 06:54:58;;;;;;;;;;;19.20;99.90;;;;;;5077571;28;19920;-76
2022/05/26 07:00:46;;;;;;;;;;;19.10;99.90;;;;;;5016070;28;19929;-84
2022/05/26 07:03:14;;;;;;;;;;;19.10;99.90;;;;;;5020272;28;19989;-83
2022/05/26 07:05:41;;;;;;;;;;;19.20;99.90;;;;;;5032184;28;19929;-82
2022/05/26 07:08:09;;;;;;;;;;;19.30;99.90;;;;;;5034566;28;20016;-82
2022/05/26 07:10:37;;;;;;;;;;;19.50;99.90;;;;;;5022091;28;19933;-83
2022/05/26 07:13:04;;;;;;;;;;;19.70;99.90;;;;;;5028445;28;19951;-83
2022/05/26 07:15:33;;;;;;;;;;;20.20;99.90;;;;;;5020270;28;19937;-83
2022/05/26 07:17:59;;;;;;;;;;;20.40;99.90;;;;;;5027075;28;19996;-83
2022/05/26 07:20:26;;;;;;;;;;;20.90;99.90;;;;;;5041068;28;19976;-82
2022/05/26 07:22:54;;;;;;;;;;;22.10;99.90;;;;;;5041429;28;19925;-82
2022/05/26 07:25:22;;;;;;;;;;;23.10;99.90;;;;;;5029498;28;19929;-82
2022/05/26 07:27:49;;;;;;;;;;;23.20;99.90;;;;;;5022984;28;19925;-82
2022/05/26 07:30:15;;;;;;;;;;;23.60;99.90;;;;;;5015443;28;19925;-82
2022/05/26 07:32:43;;;;;;;;;;;23.30;99.90;;;;;;5032576;28;20572;-83
2022/05/26 07:35:09;;;;;;;;;;;24.00;99.90;;;;;;5016128;28;20308;-82
2022/05/26 07:43:08;;;;;;;;;;;24.40;99.90;;;;;;5033664;28;20396;-82
2022/05/26 07:45:35;;;;;;;;;;;25.00;99.90;;;;;;5020821;28;19930;-82
2022/05/26 07:48:03;;;;;;;;;;;25.00;99.90;;;;;;5033813;28;20298;-83
2022/05/26 07:50:29;;;;;;;;;;;25.00;99.90;;;;;;5018557;28;19936;-82
2022/05/26 07:52:56;;;;;;;;;;;25.00;99.90;;;;;;5027804;28;20032;-82
2022/05/26 07:55:24;;;;;;;;;;;24.60;99.90;;;;;;5025843;28;19929;-83
2022/05/26 07:57:53;;;;;;;;;;;24.00;99.90;;;;;;5029954;28;19937;-82
2022/05/26 08:00:20;;;;;;;;;;;23.40;99.90;;;;;;5038454;28;19932;-82
2022/05/26 08:02:47;;;;;;;;;;;22.90;99.90;;;;;;5042039;28;20028;-83
2022/05/26 08:05:14;;;;;;;;;;;23.00;99.90;;;;;;5037451;28;20276;-84
2022/05/26 08:07:43;;;;;;;;;;;23.70;99.90;;;;;;5034094;28;19984;-83
2022/05/26 08:10:11;;;;;;;;;;;24.00;99.90;;;;;;5042053;28;20271;-83
2022/05/26 08:12:39;;;;;;;;;;;24.00;99.90;;;;;;5035585;28;19931;-84
2022/05/26 08:15:07;;;;;;;;;;;24.00;99.90;;;;;;5021809;28;20009;-82
2022/05/26 08:17:34;;;;;;;;;;;23.90;99.90;;;;;;5014626;28;19964;-80
2022/05/26 08:20:13;;;;;;;;;;;23.50;99.90;;;;;;5032580;28;20376;-83
2022/05/26 08:22:43;;;;;;;;;;;23.40;99.90;;;;;;5013797;28;19987;-81
2022/05/26 08:25:10;;;;;;;;;;;23.00;99.90;;;;;;5019307;28;20000;-83
2022/05/26 08:27:40;;;;;;;;;;;23.20;99.90;;;;;;5041684;28;19935;-80
2022/05/26 08:30:08;;;;;;;;;;;23.90;99.90;;;;;;5048937;28;19917;-81
2022/05/26 08:32:35;;;;;;;;;;;23.90;99.90;;;;;;5015009;28;19945;-79
2022/05/26 08:35:04;;;;;;;;;;;24.10;99.90;;;;;;5037603;28;19925;-80
2022/05/26 08:37:31;;;;;;;;;;;25.20;99.90;;;;;;5013666;28;20015;-79
2022/05/26 08:39:58;;;;;;;;;;;24.10;99.90;;;;;;5032297;28;20252;-80
2022/05/26 08:42:27;;;;;;;;;;;24.20;99.90;;;;;;5032704;28;19964;-81
2022/05/26 08:44:58;;;;;;;;;;;24.40;99.90;;;;;;5014888;28;19925;-79
2022/05/26 08:47:28;;;;;;;;;;;24.60;99.90;;;;;;5031858;28;19926;-79
2022/05/26 08:50:01;;;;;;;;;;;24.70;99.90;;;;;;5036521;28;20063;-80
2022/05/26 08:52:31;;;;;;;;;;;24.90;99.90;;;;;;5035051;28;19989;-80
2022/05/26 08:55:02;;;;;;;;;;;25.50;99.90;;;;;;5037957;28;19929;-80
2022/05/26 08:57:32;;;;;;;;;;;25.70;99.90;;;;;;5011003;28;19991;-78
2022/05/26 09:00:00;;;;;;;;;;;25.70;99.90;;;;;;5039075;28;19931;-78
2022/05/26 09:02:29;;;;;;;;;;;25.50;99.90;;;;;;5041327;28;19933;-80
2022/05/26 09:04:57;;;;;;;;;;;25.40;99.90;;;;;;5033536;28;19933;-79
2022/05/26 09:12:59;;;;;;;;;;;26.00;99.90;;;;;;5018812;28;19932;-80
2022/05/26 09:15:28;;;;;;;;;;;26.50;99.90;;;;;;5041512;28;19929;-79
2022/05/26 09:17:56;;;;;;;;;;;26.60;99.90;;;;;;5030962;28;20302;-78
2022/05/26 09:20:34;;;;;;;;;;;26.30;99.90;;;;;;5028467;28;19944;-78
2022/05/26 09:23:08;;;;;;;;;;;25.60;99.90;;;;;;5030821;28;19935;-79
2022/05/26 09:25:37;;;;;;;;;;;24.70;99.90;;;;;;5026877;28;20089;-81
2022/05/26 09:28:06;;;;;;;;;;;24.30;99.90;;;;;;5015048;28;19926;-79
2022/05/26 09:30:35;;;;;;;;;;;24.00;99.90;;;;;;5048851;28;20198;-79
2022/05/26 09:33:02;;;;;;;;;;;23.90;99.90;;;;;;5035651;28;19940;-81
2022/05/26 09:35:30;;;;;;;;;;;23.60;99.90;;;;;;5040519;28;20278;-80
2022/05/26 09:38:00;;;;;;;;;;;23.20;99.90;;;;;;5041944;28;19985;-80
2022/05/26 09:40:29;;;;;;;;;;;23.10;99.90;;;;;;5046110;28;20001;-83
2022/05/26 09:43:02;;;;;;;;;;;23.10;99.90;;;;;;5021732;28;19971;-84
2022/05/26 09:45:34;;;;;;;;;;;22.90;99.90;;;;;;5019678;28;20005;-84
2022/05/26 09:48:20;;;;;;;;;;;22.70;99.90;;;;;;5017718;28;20230;-85
2022/05/26 09:50:52;;;;;;;;;;;23.00;99.90;;;;;;5017119;28;20446;-83
2022/05/26 09:53:31;;;;;;;;;;;23.60;99.90;;;;;;5042358;28;19937;-81
2022/05/26 09:56:01;;;;;;;;;;;23.70;99.90;;;;;;5037763;28;19929;-83
2022/05/26 09:58:37;;;;;;;;;;;23.50;99.90;;;;;;5038002;28;19925;-81
2022/05/26 10:01:06;;;;;;;;;;;23.40;99.90;;;;;;5036178;28;19932;-81
2022/05/26 10:03:46;;;;;;;;;;;22.10;99.90;;;;;;5017048;28;19941;-81
2022/05/26 10:06:26;;;;;;;;;;;23.60;99.90;;;;;;5026702;28;20367;-82
2022/05/26 10:09:01;;;;;;;;;;;23.80;99.90;;;;;;5034518;28;19930;-81
2022/05/26 10:11:36;;;;;;;;;;;23.70;99.90;;;;;;5035011;28;19929;-81
2022/05/26 10:14:09;;;;;;;;;;;23.60;99.90;;;;;;5018583;28;19972;-81
2022/05/26 10:16:39;;;;;;;;;;;23.50;99.90;;;;;;5031123;28;19933;-82
2022/05/26 10:19:15;;;;;;;;;;;23.20;98.90;;;;;;5022515;28;20014;-80
2022/05/26 10:22:06;;;;;;;;;;;23.00;99.30;;;;;;5033506;28;19934;-81
2022/05/26 10:24:47;;;;;;;;;;;22.80;99.90;;;;;;5019167;28;19952;-80
2022/05/26 10:27:17;;;;;;;;;;;22.70;99.90;;;;;;5027301;28;19979;-82
2022/05/26 10:29:52;;;;;;;;;;;22.30;99.90;;;;;;5051716;28;19913;-82
2022/05/26 10:32:26;;;;;;;;;;;21.90;99.90;;;;;;5045111;28;20043;-84
2022/05/26 10:35:01;;;;;;;;;;;21.90;99.90;;;;;;5035259;28;19994;-83
2022/05/26 10:37:34;;;;;;;;;;;22.10;99.90;;;;;;5040880;28;19925;-83
2022/05/26 10:40:07;;;;;;;;;;;22.00;99.90;;;;;;5036087;28;19933;-84
2022/05/26 10:42:35;;;;;;;;;;;22.00;99.90;;;;;;5038691;28;19955;-85
2022/05/26 10:45:12;;;;;;;;;;;20.80;99.90;;;;;;5042621;28;19932;-87
2022/05/26 10:47:42;;;;;;;;;;;22.10;99.90;;;;;;5030913;28;19925;-83
2022/05/26 10:50:13;;;;;;;;;;;22.40;99.90;;;;;;5042791;28;19924;-83
2022/05/26 10:52:43;;;;;;;;;;;22.70;99.90;;;;;;5041916;28;19935;-83
2022/05/26 10:55:11;;;;;;;;;;;23.00;99.90;;;;;;5030687;28;19925;-83
2022/05/26 10:57:43;;;;;;;;;;;23.10;99.90;;;;;;5043961;28;19929;-83
2022/05/26 11:00:11;;;;;;;;;;;22.80;99.60;;;;;;5044923;28;19932;-83
2022/05/26 11:02:43;;;;;;;;;;;22.40;99.80;;;;;;5056232;28;20026;-83
2022/05/26 11:05:13;;;;;;;;;;;22.30;99.90;;;;;;5025308;28;20606;-83
2022/05/26 11:07:45;;;;;;;;;;;22.60;99.90;;;;;;5042721;28;19935;-84
2022/05/26 11:10:14;;;;;;;;;;;22.80;99.90;;;;;;5041894;28;19929;-83
2022/05/26 11:18:03;;;;;;;;;;;24.10;98.90;;;;;;5013335;28;20035;-83
2022/05/26 11:20:35;;;;;;;;;;;24.40;97.20;;;;;;4979407;28;19925;-80
2022/05/26 11:23:04;;;;;;;;;;;24.50;97.30;;;;;;4979355;28;19933;-81
2022/05/26 11:25:32;;;;;;;;;;;24.50;97.20;;;;;;4977358;28;19928;-82
2022/05/26 11:28:02;;;;;;;;;;;24.50;97.60;;;;;;4978385;28;19930;-82
2022/05/26 11:36:09;;;;;;;;;;;24.90;96.00;;;;;;5022020;28;19926;-82
2022/05/26 11:38:41;;;;;;;;;;;25.00;95.20;;;;;;5008971;28;19985;-82
2022/05/26 11:41:09;;;;;;;;;;;24.50;94.80;;;;;;5014545;28;19980;-82
2022/05/26 11:43:40;;;;;;;;;;;24.30;95.10;;;;;;5001103;28;19992;-82
2022/05/26 11:46:09;;;;;;;;;;;24.30;95.30;;;;;;4998978;28;19936;-83
2022/05/26 11:48:41;;;;;;;;;;;24.50;95.80;;;;;;5000134;28;19934;-82
2022/05/26 11:51:23;;;;;;;;;;;24.60;95.90;;;;;;5013183;28;20032;-83
2022/05/26 11:53:51;;;;;;;;;;;24.80;95.70;;;;;;5012007;28;20529;-82
2022/05/26 11:56:38;;;;;;;;;;;24.80;95.00;;;;;;4996155;28;20003;-83
2022/05/26 11:59:26;;;;;;;;;;;24.70;95.60;;;;;;5005568;28;19929;-82
2022/05/26 12:02:08;;;;;;;;;;;25.00;95.70;;;;;;4988332;28;19929;-82
2022/05/26 12:04:36;;;;;;;;;;;25.30;95.50;;;;;;5004941;28;19980;-83
2022/05/26 12:07:04;;;;;;;;;;;25.60;94.90;;;;;;4999583;28;19930;-83
2022/05/26 12:09:44;;;;;;;;;;;25.40;94.20;;;;;;5011903;28;19953;-82
2022/05/26 12:12:30;;;;;;;;;;;25.30;94.00;;;;;;5004876;28;19936;-83
2022/05/26 12:15:03;;;;;;;;;;;25.30;93.70;;;;;;4998887;28;19930;-84
2022/05/26 12:17:33;;;;;;;;;;;25.30;93.60;;;;;;4996696;28;20346;-83
2022/05/26 12:20:03;;;;;;;;;;;25.30;93.10;;;;;;5014056;28;19967;-82
2022/05/26 12:22:31;;;;;;;;;;;25.20;93.20;;;;;;5013022;28;19984;-83
2022/05/26 12:25:06;;;;;;;;;;;24.90;93.00;;;;;;5012066;28;20036;-82
2022/05/26 12:27:54;;;;;;;;;;;24.50;93.20;;;;;;4996683;28;19929;-82
2022/05/26 12:30:40;;;;;;;;;;;24.20;93.40;;;;;;5012449;28;19964;-82
2022/05/26 12:33:16;;;;;;;;;;;24.10;94.00;;;;;;5011079;28;20393;-82
2022/05/26 12:35:45;;;;;;;;;;;24.20;94.70;;;;;;5021646;28;20468;-82
2022/05/26 12:38:23;;;;;;;;;;;23.90;93.90;;;;;;4997453;28;20411;-82
2022/05/26 12:40:54;;;;;;;;;;;23.90;94.20;;;;;;5012514;28;19925;-81
2022/05/26 12:43:46;;;;;;;;;;;23.80;94.20;;;;;;5016568;28;20255;-82
2022/05/26 12:46:29;;;;;;;;;;;23.80;94.30;;;;;;5014498;28;19949;-82
2022/05/26 12:49:01;;;;;;;;;;;24.30;94.30;;;;;;5002002;28;19933;-81
2022/05/26 12:51:33;;;;;;;;;;;24.40;94.30;;;;;;4991600;28;20281;-82
2022/05/26 12:54:01;;;;;;;;;;;24.40;94.40;;;;;;5013763;28;19937;-82
2022/05/26 12:56:38;;;;;;;;;;;23.60;93.60;;;;;;4981984;28;20135;-82
2022/05/26 12:59:05;;;;;;;;;;;24.50;93.90;;;;;;4999943;28;19926;-82
2022/05/26 13:01:32;;;;;;;;;;;24.50;93.60;;;;;;4996707;28;19930;-82
2022/05/26 13:04:04;;;;;;;;;;;24.60;93.90;;;;;;5013443;28;19926;-82
2022/05/26 13:06:33;;;;;;;;;;;24.80;94.20;;;;;;5015362;28;20306;-82
2022/05/26 13:09:06;;;;;;;;;;;24.90;93.50;;;;;;5012750;28;19925;-81
2022/05/26 13:11:37;;;;;;;;;;;24.80;93.60;;;;;;5012600;28;19949;-82
2022/05/26 13:14:06;;;;;;;;;;;24.60;93.60;;;;;;5012747;28;20453;-81
2022/05/26 13:16:34;;;;;;;;;;;24.50;93.80;;;;;;5012080;28;19926;-82
2022/05/26 13:19:09;;;;;;;;;;;24.20;93.70;;;;;;5012812;28;19932;-82
2022/05/26 13:21:36;;;;;;;;;;;23.90;93.90;;;;;;5015781;28;19996;-82
2022/05/26 13:24:03;;;;;;;;;;;23.60;94.20;;;;;;5001231;28;19940;-82
2022/05/26 13:26:31;;;;;;;;;;;23.40;94.50;;;;;;4999758;28;19957;-82
2022/05/26 13:29:00;;;;;;;;;;;23.50;94.90;;;;;;5016463;28;19929;-82
2022/05/26 13:34:13;;;;;;;;;;;24.00;95.60;;;;;;5016348;28;20040;-81
2022/05/26 13:36:41;;;;;;;;;;;24.30;95.10;;;;;;5018533;28;20329;-82
2022/05/26 13:39:09;;;;;;;;;;;24.20;94.80;;;;;;5002421;28;19930;-82
2022/05/26 13:41:37;;;;;;;;;;;24.20;95.10;;;;;;5022132;28;19997;-82
2022/05/26 13:44:08;;;;;;;;;;;24.00;95.10;;;;;;5013017;28;20607;-81
2022/05/26 13:46:36;;;;;;;;;;;23.90;95.10;;;;;;4993895;28;19926;-82
2022/05/26 13:49:16;;;;;;;;;;;23.90;95.20;;;;;;4999832;28;19965;-81
2022/05/26 13:51:45;;;;;;;;;;;23.90;94.80;;;;;;4988566;28;20696;-81
2022/05/26 13:54:26;;;;;;;;;;;23.80;94.70;;;;;;5001356;28;20325;-80
2022/05/26 13:56:54;;;;;;;;;;;23.50;94.70;;;;;;5018066;28;19929;-80
2022/05/26 13:59:23;;;;;;;;;;;23.30;94.60;;;;;;5017450;28;20560;-79
2022/05/26 14:01:51;;;;;;;;;;;23.20;95.00;;;;;;5012356;28;19934;-81
2022/05/26 14:04:22;;;;;;;;;;;23.00;95.10;;;;;;5006854;28;19930;-80
2022/05/26 14:06:50;;;;;;;;;;;23.00;95.40;;;;;;5016659;28;20358;-81
2022/05/26 14:09:30;;;;;;;;;;;23.30;95.20;;;;;;5001463;28;19950;-81
2022/05/26 14:12:03;;;;;;;;;;;23.40;95.20;;;;;;4999403;28;19948;-80
2022/05/26 14:14:39;;;;;;;;;;;23.40;94.90;;;;;;5017072;28;19936;-80
2022/05/26 14:17:08;;;;;;;;;;;23.40;94.60;;;;;;5018254;28;19925;-80
2022/05/26 14:19:37;;;;;;;;;;;23.40;94.40;;;;;;4999641;28;20351;-80
2022/05/26 14:22:04;;;;;;;;;;;23.40;94.30;;;;;;5011266;28;20605;-80
2022/05/26 14:24:33;;;;;;;;;;;23.50;94.80;;;;;;5006483;28;19930;-81
2022/05/26 14:27:02;;;;;;;;;;;23.70;94.50;;;;;;5006402;28;20334;-81
2022/05/26 14:29:35;;;;;;;;;;;23.90;94.30;;;;;;5008860;28;19934;-81
2022/05/26 14:32:10;;;;;;;;;;;24.00;93.90;;;;;;5017998;28;20286;-81
2022/05/26 14:34:38;;;;;;;;;;;24.10;94.40;;;;;;5012794;28;19933;-83
2022/05/26 14:37:05;;;;;;;;;;;24.30;94.10;;;;;;5017758;28;19940;-82
2022/05/26 14:39:32;;;;;;;;;;;24.20;93.80;;;;;;5001026;28;19930;-81
2022/05/26 14:42:00;;;;;;;;;;;24.10;94.30;;;;;;5001250;28;19926;-82
2022/05/26 14:44:28;;;;;;;;;;;23.90;94.10;;;;;;5017272;28;19941;-82
2022/05/26 14:46:56;;;;;;;;;;;23.80;94.00;;;;;;5001115;28;19976;-81
2022/05/26 14:49:23;;;;;;;;;;;23.40;93.80;;;;;;5021732;28;20007;-81
2022/05/26 14:51:50;;;;;;;;;;;23.30;94.00;;;;;;5018239;28;19930;-82
2022/05/26 14:57:03;;;;;;;;;;;22.90;94.50;;;;;;5000500;28;19949;-82
2022/05/26 14:59:30;;;;;;;;;;;21.90;94.10;;;;;;5018115;28;19937;-82
2022/05/26 15:01:58;;;;;;;;;;;23.20;94.70;;;;;;5001740;28;19926;-81
2022/05/26 15:04:25;;;;;;;;;;;23.20;95.00;;;;;;5000345;28;19926;-81
2022/05/26 15:06:52;;;;;;;;;;;23.40;95.00;;;;;;5017485;28;19929;-81
2022/05/26 15:09:20;;;;;;;;;;;23.50;94.70;;;;;;5001181;28;19938;-82
2022/05/26 15:11:47;;;;;;;;;;;23.70;95.10;;;;;;5001719;28;19926;-83
2022/05/26 15:14:14;;;;;;;;;;;23.90;95.20;;;;;;5001034;28;20404;-83
2022/05/26 15:16:42;;;;;;;;;;;24.10;94.90;;;;;;5018039;28;20292;-83
2022/05/26 15:19:16;;;;;;;;;;;24.30;94.50;;;;;;5000637;28;19937;-82
2022/05/26 15:21:46;;;;;;;;;;;24.20;94.10;;;;;;5003963;28;19936;-83
2022/05/26 15:24:19;;;;;;;;;;;24.20;94.40;;;;;;5002197;28;19948;-83
2022/05/26 15:26:49;;;;;;;;;;;24.10;94.50;;;;;;5003203;28;19938;-82